Terminal Aerodrome Forecast
Issued by NWS

Home | Current Version | Previous Version | Graphics & Text | Print | Product List | Glossary On
Versions: 1 2 3 4 5 6 7 8 9 10 11 12 13 14 15
000
FTUS43 KTOP 112339
TAFFOE
TAF
KFOE 112339Z 1200/1224 32022G32KT P6SM BKN045
     FM120600 33017KT P6SM SCT060
     FM120900 33010KT P6SM SCT060 SCT250=

USA.gov is the U.S. government's official web portal to all federal, state and local government web resources and services.